Time;durP1;ratioP1;P1;durP2;ratioP2;P2;SDS_P1;SDS_P2;PMS_P1;PMS_P2;Temp;Humidity;BMP_temperature;BMP_pressure;BME280_temperature;BME280_humidity;BME280_pressure;Samples;Min_cycle;Max_cycle;Signal;HPM_P1;HPM_P2
2022/02/23 00:01:30;;;;;;;21.67;9.43;;;77.60;2227.20;;;;;;5067099;28;20105;-71
2022/02/23 00:04:00;;;;;;;18.33;9.63;;;77.70;2227.20;;;;;;5070292;28;20036;-72
2022/02/23 00:06:26;;;;;;;17.83;7.97;;;77.60;2227.20;;;;;;5067288;28;20032;-72
2022/02/23 00:08:52;;;;;;;19.00;10.60;;;77.70;2227.20;;;;;;5070046;28;20028;-72
2022/02/23 00:11:17;;;;;;;14.75;8.02;;;77.70;2227.20;;;;;;5069703;28;20029;-72
2022/02/23 00:13:46;;;;;;;17.77;9.23;;;77.70;2227.20;;;;;;5071506;28;20025;-72
2022/02/23 00:16:18;;;;;;;17.52;7.90;;;77.70;2227.20;;;;;;5065650;28;20074;-71
2022/02/23 00:18:47;;;;;;;13.25;8.18;;;77.70;2227.20;;;;;;5065113;28;20074;-71
2022/02/23 00:21:14;;;;;;;13.93;8.50;;;77.60;2227.20;;;;;;5064978;28;20487;-72
2022/02/23 00:23:39;;;;;;;17.48;9.18;;;77.70;2227.20;;;;;;5072032;28;20031;-71
2022/02/23 00:26:06;;;;;;;18.73;8.55;;;77.60;2227.20;;;;;;5065189;28;20021;-70
2022/02/23 00:28:31;;;;;;;19.05;8.30;;;77.60;2227.20;;;;;;5066531;28;20032;-71
2022/02/23 00:30:57;;;;;;;19.42;8.35;;;77.50;2227.20;;;;;;5067528;28;20017;-71
2022/02/23 00:33:23;;;;;;;18.95;7.13;;;77.60;2227.20;;;;;;5062222;28;20115;-71
2022/02/23 00:35:52;;;;;;;14.82;7.20;;;77.60;2227.20;;;;;;5060614;28;20052;-71
2022/02/23 00:38:18;;;;;;;15.10;6.78;;;77.60;2227.20;;;;;;5059781;28;20041;-71
2022/02/23 00:40:48;;;;;;;14.05;7.07;;;77.60;2227.20;;;;;;5060878;28;20040;-70
2022/02/23 00:43:20;;;;;;;11.95;7.45;;;77.60;2227.20;;;;;;5060416;28;20017;-70
2022/02/23 00:45:49;;;;;;;19.33;8.50;;;77.70;2227.20;;;;;;5061743;28;20483;-71
2022/02/23 00:48:14;;;;;;;15.57;7.43;;;77.70;2227.20;;;;;;5061316;28;20044;-71
2022/02/23 00:50:40;;;;;;;14.55;8.15;;;77.60;2227.20;;;;;;5061065;28;20032;-71
2022/02/23 00:53:06;;;;;;;13.88;7.30;;;77.60;2227.20;;;;;;5061905;28;20024;-71
2022/02/23 00:55:32;;;;;;;15.57;7.63;;;77.50;2227.20;;;;;;5069094;28;20040;-70
2022/02/23 00:57:57;;;;;;;15.75;8.82;;;77.50;2227.20;;;;;;5068300;28;20086;-70
2022/02/23 01:00:23;;;;;;;19.67;8.65;;;77.50;2227.20;;;;;;5065337;28;20021;-70
2022/02/23 01:02:49;;;;;;;13.48;8.30;;;77.40;2227.20;;;;;;5060320;28;20040;-71
2022/02/23 01:05:18;;;;;;;19.80;9.85;;;77.40;2227.20;;;;;;5062678;28;20491;-71
2022/02/23 01:07:43;;;;;;;11.85;8.05;;;77.30;2227.20;;;;;;5067912;28;20452;-71
2022/02/23 01:10:19;;;;;;;13.98;7.05;;;77.30;2227.20;;;;;;5060482;28;20104;-70
2022/02/23 01:12:52;;;;;;;14.25;7.57;;;77.20;2227.20;;;;;;5064126;28;20022;-71
2022/02/23 01:15:21;;;;;;;34.20;17.15;;;77.10;2227.20;;;;;;5064672;28;20031;-71
2022/02/23 01:17:50;;;;;;;21.90;9.52;;;77.10;2227.20;;;;;;5059167;28;20033;-71
2022/02/23 01:20:16;;;;;;;50.50;19.02;;;77.10;2227.20;;;;;;5064232;28;20100;-70
2022/02/23 01:22:42;;;;;;;25.95;13.38;;;77.10;2227.20;;;;;;5071378;28;20020;-71
2022/02/23 01:25:08;;;;;;;19.58;10.80;;;77.20;2227.20;;;;;;5071319;28;20017;-71
2022/02/23 01:27:34;;;;;;;22.88;11.07;;;77.10;2227.20;;;;;;5068206;28;20120;-71
2022/02/23 01:30:00;;;;;;;15.27;7.28;;;77.10;2227.20;;;;;;5068435;28;20017;-71
2022/02/23 01:32:26;;;;;;;14.55;7.93;;;77.10;2227.20;;;;;;5065752;28;20372;-71
2022/02/23 01:34:52;;;;;;;17.48;7.45;;;77.10;2227.20;;;;;;5068828;28;20487;-71
2022/02/23 01:37:18;;;;;;;15.25;7.82;;;77.20;2227.20;;;;;;5067626;28;20029;-71
2022/02/23 01:39:44;;;;;;;12.10;6.53;;;77.10;2227.20;;;;;;5073528;28;20044;-71
2022/02/23 01:42:11;;;;;;;15.45;7.65;;;77.10;2227.20;;;;;;5074287;28;20088;-71
2022/02/23 01:44:37;;;;;;;10.93;5.53;;;77.10;2227.20;;;;;;5071656;28;20085;-71
2022/02/23 01:47:03;;;;;;;12.02;6.45;;;77.10;2227.20;;;;;;5069352;28;20017;-71
2022/02/23 01:49:29;;;;;;;13.02;7.57;;;77.30;2227.20;;;;;;5071851;28;20105;-71
2022/02/23 01:51:55;;;;;;;14.35;6.28;;;77.20;2227.20;;;;;;5068286;28;20093;-71
2022/02/23 01:54:21;;;;;;;15.55;6.63;;;77.10;2227.20;;;;;;5071612;28;20032;-71
2022/02/23 01:56:47;;;;;;;12.55;5.90;;;77.30;2227.20;;;;;;5068992;28;20020;-71
2022/02/23 01:59:13;;;;;;;18.38;6.47;;;77.20;2227.20;;;;;;5067256;28;20036;-71
2022/02/23 02:01:38;;;;;;;14.32;6.43;;;77.30;2227.20;;;;;;5065505;28;20025;-71
2022/02/23 02:04:04;;;;;;;8.70;5.32;;;77.30;2227.20;;;;;;5068442;28;20021;-71
2022/02/23 02:06:30;;;;;;;10.35;5.32;;;77.30;2227.20;;;;;;5068803;28;20506;-71
2022/02/23 02:08:55;;;;;;;13.05;5.55;;;77.30;2227.20;;;;;;5067346;28;20032;-71
2022/02/23 02:11:21;;;;;;;12.15;5.57;;;77.30;2227.20;;;;;;5062324;28;20047;-71
2022/02/23 02:13:47;;;;;;;11.13;5.10;;;77.30;2227.20;;;;;;5054445;28;20074;-71
2022/02/23 02:16:13;;;;;;;13.35;6.78;;;77.30;2227.20;;;;;;5054654;28;20028;-71
2022/02/23 02:18:39;;;;;;;10.30;6.25;;;77.40;2227.20;;;;;;5054524;28;20036;-71
2022/02/23 02:21:05;;;;;;;10.88;5.20;;;77.50;2227.20;;;;;;5054482;28;20021;-71
2022/02/23 02:23:30;;;;;;;12.70;6.22;;;77.40;2227.20;;;;;;5054478;28;20457;-71
2022/02/23 02:25:56;;;;;;;9.80;5.55;;;77.40;2227.20;;;;;;5054283;28;20100;-71
2022/02/23 02:28:22;;;;;;;13.13;5.70;;;77.40;2227.20;;;;;;5054167;28;20021;-71
2022/02/23 02:30:48;;;;;;;48.67;24.48;;;77.30;2227.20;;;;;;5081458;28;20127;-71
2022/02/23 02:33:14;;;;;;;29.65;16.55;;;77.20;2227.20;;;;;;5093515;28;20439;-71
2022/02/23 02:35:39;;;;;;;17.52;10.52;;;77.30;2227.20;;;;;;5094711;28;20521;-71
2022/02/23 02:38:07;;;;;;;14.55;7.50;;;77.30;2227.20;;;;;;5094592;28;20024;-71
2022/02/23 02:40:34;;;;;;;17.23;10.30;;;77.20;2227.20;;;;;;5094341;28;20025;-71
2022/02/23 02:43:04;;;;;;;16.05;8.77;;;77.00;2227.20;;;;;;5094170;28;20028;-71
2022/02/23 02:45:30;;;;;;;15.63;7.78;;;77.00;2227.20;;;;;;5094496;28;20115;-71
2022/02/23 02:47:56;;;;;;;15.77;8.20;;;77.00;2227.20;;;;;;5094196;28;20085;-71
2022/02/23 02:50:21;;;;;;;19.42;9.38;;;76.90;2227.20;;;;;;5092484;28;20028;-71
2022/02/23 02:52:47;;;;;;;12.70;7.70;;;76.80;2227.20;;;;;;5073873;28;20024;-71
2022/02/23 02:55:13;;;;;;;18.17;9.43;;;52.10;2227.20;;;;;;5073893;28;20040;-71
2022/02/23 02:57:39;;;;;;;16.05;8.13;;;52.10;2227.20;;;;;;5072607;28;20028;-71
2022/02/23 03:00:08;;;;;;;13.48;7.72;;;52.10;2227.20;;;;;;5073432;28;20095;-71
2022/02/23 03:02:33;;;;;;;11.90;8.10;;;52.00;2227.20;;;;;;5073281;28;20032;-71
2022/02/23 03:04:59;;;;;;;18.08;8.82;;;51.90;2227.20;;;;;;5072315;28;20029;-71
2022/02/23 03:07:25;;;;;;;14.32;7.22;;;51.80;2227.20;;;;;;5073416;28;20103;-71
2022/02/23 03:09:51;;;;;;;18.15;8.45;;;51.80;2227.20;;;;;;5073391;28;20031;-71
2022/02/23 03:12:16;;;;;;;26.30;8.18;;;51.90;2227.20;;;;;;5073756;28;20490;-71
2022/02/23 03:14:42;;;;;;;14.98;8.52;;;52.00;2227.20;;;;;;5073600;28;20032;-71
2022/02/23 03:17:08;;;;;;;14.30;8.32;;;51.80;2227.20;;;;;;5073688;28;20024;-71
2022/02/23 03:19:33;;;;;;;15.82;7.93;;;51.70;2227.20;;;;;;5073384;28;20049;-71
2022/02/23 03:21:59;;;;;;;16.48;8.88;;;51.70;2227.20;;;;;;5079548;28;20020;-71
2022/02/23 03:24:25;;;;;;;18.63;8.15;;;51.80;2227.20;;;;;;5092258;28;20024;-71
2022/02/23 03:26:51;;;;;;;18.52;9.27;;;51.80;2227.20;;;;;;5087980;28;20027;-71
2022/02/23 03:29:16;;;;;;;15.48;9.05;;;51.80;2227.20;;;;;;5076171;28;20025;-71
2022/02/23 03:31:42;;;;;;;15.60;8.38;;;51.90;2227.20;;;;;;5091736;28;20039;-72
2022/02/23 03:34:08;;;;;;;14.75;7.15;;;51.90;2227.20;;;;;;5093208;28;20028;-71
2022/02/23 03:36:34;;;;;;;12.45;6.57;;;51.90;2227.20;;;;;;5093222;28;20059;-72
2022/02/23 03:39:00;;;;;;;12.05;6.05;;;52.00;2227.20;;;;;;5093379;28;20054;-71
2022/02/23 03:41:25;;;;;;;12.98;7.00;;;52.00;2227.20;;;;;;5092065;28;20051;-72
2022/02/23 03:43:51;;;;;;;12.35;7.05;;;52.00;2227.20;;;;;;5092646;28;20032;-72
2022/02/23 03:46:17;;;;;;;13.00;7.43;;;52.00;2227.20;;;;;;5092381;28;20459;-72
2022/02/23 03:48:44;;;;;;;12.05;6.78;;;52.00;2227.20;;;;;;5093452;28;20024;-71
2022/02/23 03:51:10;;;;;;;11.77;6.43;;;52.10;2227.20;;;;;;5093415;28;20032;-71
2022/02/23 03:53:36;;;;;;;18.23;7.18;;;52.10;2227.20;;;;;;5093474;28;20119;-71
2022/02/23 03:56:02;;;;;;;15.02;7.72;;;52.10;2227.20;;;;;;5092838;28;20027;-71
2022/02/23 03:58:28;;;;;;;11.73;6.53;;;52.10;2227.20;;;;;;5093071;28;20045;-71
2022/02/23 04:00:54;;;;;;;12.20;7.05;;;52.10;2227.20;;;;;;5091571;28;20453;-72
2022/02/23 04:03:19;;;;;;;10.23;5.75;;;52.10;2227.20;;;;;;5092716;28;20031;-71
2022/02/23 04:05:45;;;;;;;15.15;6.35;;;76.80;2227.20;;;;;;5092708;28;20047;-71
2022/02/23 04:08:11;;;;;;;12.90;6.88;;;76.80;2227.20;;;;;;5093089;28;20093;-71
2022/02/23 04:10:37;;;;;;;13.93;8.00;;;76.80;2227.20;;;;;;5093094;28;20081;-72
2022/02/23 04:13:06;;;;;;;15.45;6.78;;;76.80;2227.20;;;;;;5092704;28;20514;-71
2022/02/23 04:15:31;;;;;;;14.82;6.72;;;76.80;2227.20;;;;;;5092791;28;20024;-71
2022/02/23 04:17:57;;;;;;;11.10;6.95;;;76.80;2227.20;;;;;;5092454;28;20027;-71
2022/02/23 04:20:23;;;;;;;13.77;6.50;;;76.80;2227.20;;;;;;5092694;28;20032;-72
2022/02/23 04:22:49;;;;;;;13.73;6.55;;;76.80;2227.20;;;;;;5092813;28;20024;-72
2022/02/23 04:25:14;;;;;;;13.20;7.80;;;76.80;2227.20;;;;;;5074792;28;20021;-71
2022/02/23 04:27:40;;;;;;;12.48;8.20;;;76.80;2227.20;;;;;;5072026;28;20028;-71
2022/02/23 04:30:07;;;;;;;16.73;7.13;;;76.80;2227.20;;;;;;5072151;28;20028;-72
2022/02/23 04:32:33;;;;;;;18.65;9.77;;;76.80;2227.20;;;;;;5070481;28;20039;-71
2022/02/23 04:34:59;;;;;;;21.85;11.23;;;76.80;2227.20;;;;;;5070528;28;20102;-71
2022/02/23 04:37:28;;;;;;;31.70;18.08;;;76.80;2227.20;;;;;;5071053;28;20033;-71
2022/02/23 04:39:54;;;;;;;27.02;13.40;;;52.10;2227.20;;;;;;5072133;28;20017;-71
2022/02/23 04:42:19;;;;;;;32.45;13.45;;;52.10;2227.20;;;;;;5072214;28;20025;-71
2022/02/23 04:44:45;;;;;;;33.03;16.10;;;52.10;2227.20;;;;;;5071914;28;20027;-72
2022/02/23 04:47:11;;;;;;;38.47;19.23;;;52.00;2227.20;;;;;;5070926;28;20056;-72
2022/02/23 04:49:37;;;;;;;42.58;23.38;;;52.00;2227.20;;;;;;5072097;28;20525;-71
2022/02/23 04:52:03;;;;;;;46.80;23.67;;;51.90;2227.20;;;;;;5070921;28;20024;-71
2022/02/23 04:54:28;;;;;;;33.85;17.95;;;51.90;2227.20;;;;;;5071837;28;20032;-71
2022/02/23 04:56:54;;;;;;;42.63;19.00;;;51.90;2227.20;;;;;;5070842;28;20043;-71
2022/02/23 04:59:20;;;;;;;37.88;16.63;;;51.90;2227.20;;;;;;5071574;28;20060;-71
2022/02/23 05:01:45;;;;;;;31.52;16.77;;;51.90;2227.20;;;;;;5071510;28;20078;-71
2022/02/23 05:04:11;;;;;;;23.50;13.02;;;51.90;2227.20;;;;;;5070454;28;20040;-71
2022/02/23 05:06:37;;;;;;;17.25;10.77;;;51.80;2227.20;;;;;;5071789;28;20067;-71
2022/02/23 05:09:03;;;;;;;20.92;9.85;;;51.80;2227.20;;;;;;5071722;28;20021;-71
2022/02/23 05:11:28;;;;;;;18.15;10.63;;;51.90;2227.20;;;;;;5071492;28;20464;-71
2022/02/23 05:13:54;;;;;;;19.52;8.95;;;51.90;2227.20;;;;;;5071741;28;20395;-71
2022/02/23 05:16:21;;;;;;;16.67;7.85;;;51.90;2227.20;;;;;;5072882;28;20039;-70
2022/02/23 05:18:47;;;;;;;15.35;9.30;;;51.90;2227.20;;;;;;5081649;28;20031;-70
2022/02/23 05:21:13;;;;;;;14.70;7.65;;;52.10;2227.20;;;;;;5073498;28;20024;-71
2022/02/23 05:23:39;;;;;;;14.65;8.30;;;52.10;2227.20;;;;;;5088704;28;20039;-71
2022/02/23 05:26:04;;;;;;;12.75;7.15;;;76.80;2227.20;;;;;;5091337;28;20375;-71
2022/02/23 05:28:32;;;;;;;13.43;6.82;;;76.90;2227.20;;;;;;5090046;28;20084;-71
2022/02/23 05:30:57;;;;;;;14.45;8.23;;;77.00;2227.20;;;;;;5079513;28;20028;-71
2022/02/23 05:33:23;;;;;;;15.43;9.10;;;77.10;2227.20;;;;;;5060778;28;20067;-71
2022/02/23 05:35:49;;;;;;;20.45;9.00;;;77.20;2227.20;;;;;;5060965;28;20049;-71
2022/02/23 05:38:15;;;;;;;13.88;9.13;;;77.30;2227.20;;;;;;5065676;28;20029;-71
2022/02/23 05:40:40;;;;;;;44.95;13.25;;;77.30;2227.20;;;;;;5056431;28;20035;-71
2022/02/23 05:43:06;;;;;;;20.05;8.73;;;77.40;2227.20;;;;;;5069798;28;20487;-71
2022/02/23 05:45:32;;;;;;;19.45;8.05;;;77.40;2227.20;;;;;;5068532;28;20096;-71
2022/02/23 05:47:58;;;;;;;16.00;8.10;;;77.50;2227.20;;;;;;5071338;28;20021;-71
2022/02/23 05:50:23;;;;;;;11.25;6.15;;;77.50;2227.20;;;;;;5070664;28;20555;-71
2022/02/23 05:52:49;;;;;;;13.95;5.65;;;77.60;2227.20;;;;;;5070258;28;20029;-71
2022/02/23 05:55:15;;;;;;;17.05;7.43;;;77.70;2227.20;;;;;;5069755;28;20025;-72
2022/02/23 05:57:40;;;;;;;16.67;7.53;;;77.70;2227.20;;;;;;5069641;28;20033;-72
2022/02/23 06:00:07;;;;;;;15.52;7.03;;;102.40;2227.20;;;;;;5071290;28;20028;-72
2022/02/23 06:02:33;;;;;;;18.98;8.52;;;102.50;2227.20;;;;;;5063605;28;20515;-73
2022/02/23 06:04:59;;;;;;;19.52;8.40;;;102.50;2227.20;;;;;;5058229;28;20037;-72
2022/02/23 06:07:25;;;;;;;15.30;7.57;;;102.60;2227.20;;;;;;5055482;28;20101;-73
2022/02/23 06:09:51;;;;;;;33.97;9.88;;;102.70;2227.20;;;;;;5073551;28;20547;-72
2022/02/23 06:12:17;;;;;;;13.23;8.32;;;102.80;2227.20;;;;;;5075271;28;20117;-72
2022/02/23 06:14:43;;;;;;;18.05;9.15;;;102.80;2227.20;;;;;;5068918;28;20028;-74
2022/02/23 06:17:08;;;;;;;13.50;6.63;;;102.80;2227.20;;;;;;5069346;28;20063;-73
2022/02/23 06:19:34;;;;;;;19.73;8.98;;;102.80;2227.20;;;;;;5063184;28;20025;-73
2022/02/23 06:22:00;;;;;;;14.25;7.70;;;102.90;2227.20;;;;;;5064731;28;20422;-73
2022/02/23 06:24:26;;;;;;;19.27;8.77;;;102.90;2227.20;;;;;;5063062;28;20087;-73
2022/02/23 06:26:52;;;;;;;18.80;8.43;;;102.90;2227.20;;;;;;5068071;28;20096;-73
2022/02/23 06:29:18;;;;;;;19.65;8.27;;;102.90;2227.20;;;;;;5071326;28;20036;-72
2022/02/23 06:32:06;;;;;;;14.52;7.82;;;102.90;2227.20;;;;;;5068096;28;20074;-72
2022/02/23 06:34:32;;;;;;;16.83;8.23;;;102.90;2227.20;;;;;;5067870;28;20024;-73
2022/02/23 06:37:02;;;;;;;15.65;8.63;;;103.00;2227.20;;;;;;5065984;28;20024;-73
2022/02/23 06:39:29;;;;;;;16.90;8.32;;;102.90;2227.20;;;;;;5062790;28;20502;-72
2022/02/23 06:41:55;;;;;;;18.33;8.15;;;103.00;2227.20;;;;;;5070726;28;20028;-72
2022/02/23 06:44:21;;;;;;;19.25;9.65;;;103.00;2227.20;;;;;;5059734;28;20483;-73
2022/02/23 06:46:48;;;;;;;12.15;7.40;;;103.10;2227.20;;;;;;5053125;28;20120;-72
2022/02/23 06:49:14;;;;;;;17.60;6.78;;;103.10;2227.20;;;;;;5052696;28;20028;-73
2022/02/23 06:51:41;;;;;;;19.15;8.32;;;103.20;2227.20;;;;;;5066743;28;20028;-73
2022/02/23 06:54:07;;;;;;;16.30;7.78;;;103.20;2227.20;;;;;;5073932;28;20025;-72
2022/02/23 06:59:59;;;;;;;21.20;10.18;;;103.20;2227.20;;;;;;5074226;28;20441;-73
2022/02/23 07:02:25;;;;;;;13.38;8.30;;;103.30;2227.20;;;;;;5073805;28;20052;-72
2022/02/23 07:04:51;;;;;;;16.92;8.18;;;128.00;2252.80;;;;;;5073892;28;20074;-73
2022/02/23 07:07:17;;;;;;;16.67;8.50;;;128.10;2252.80;;;;;;5074364;28;20028;-73
2022/02/23 07:09:42;;;;;;;11.90;7.97;;;128.10;2252.80;;;;;;5074094;28;20153;-73
2022/02/23 07:12:09;;;;;;;23.27;10.80;;;128.20;2252.80;;;;;;5074180;28;20099;-72
2022/02/23 07:14:35;;;;;;;21.13;12.48;;;128.30;2252.80;;;;;;5073964;28;20025;-73
2022/02/23 07:17:01;;;;;;;29.42;14.68;;;128.30;2252.80;;;;;;5072510;28;20054;-73
2022/02/23 07:19:27;;;;;;;27.30;14.15;;;128.30;2252.80;;;;;;5071862;28;20059;-73
2022/02/23 07:21:53;;;;;;;35.28;15.07;;;128.40;2252.80;;;;;;5072568;28;20055;-73
2022/02/23 07:24:19;;;;;;;23.83;11.90;;;128.40;2252.80;;;;;;5072335;28;20040;-71
2022/02/23 07:26:45;;;;;;;36.22;16.15;;;128.40;2252.80;;;;;;5073867;28;20052;-72
2022/02/23 07:29:11;;;;;;;38.90;17.83;;;128.50;2252.80;;;;;;5073986;28;20437;-72
2022/02/23 07:31:37;;;;;;;37.10;17.42;;;128.60;2252.80;;;;;;5060729;28;20028;-72
2022/02/23 07:34:03;;;;;;;44.47;22.60;;;128.80;2252.80;;;;;;5053746;28;20031;-72
2022/02/23 07:36:28;;;;;;;32.85;17.65;;;128.70;2252.80;;;;;;5053225;28;20081;-72
2022/02/23 07:38:54;;;;;;;35.92;18.35;;;128.80;2252.80;;;;;;5053513;28;20025;-71
2022/02/23 07:41:24;;;;;;;31.17;15.55;;;128.80;2252.80;;;;;;5053507;28;20025;-72
2022/02/23 07:43:52;;;;;;;27.48;11.15;;;153.60;2252.80;;;;;;5052113;28;20171;-72
2022/02/23 07:46:18;;;;;;;29.70;16.40;;;153.70;2252.80;;;;;;5060592;28;20075;-72
2022/02/23 07:48:47;;;;;;;34.28;15.38;;;153.70;2252.80;;;;;;5060754;28;20163;-73
2022/02/23 07:51:17;;;;;;;22.90;12.80;;;153.70;2252.80;;;;;;5063274;28;20028;-73
2022/02/23 07:53:43;;;;;;;20.60;11.55;;;153.70;2252.80;;;;;;5064406;28;20028;-72
2022/02/23 07:56:09;;;;;;;28.00;15.23;;;153.70;2252.80;;;;;;5065496;28;20025;-72
2022/02/23 07:58:35;;;;;;;28.42;14.13;;;153.60;2252.80;;;;;;5064479;28;20040;-72
2022/02/23 08:01:01;;;;;;;60.45;27.15;;;153.70;2252.80;;;;;;5066694;28;20043;-72
2022/02/23 08:03:27;;;;;;;31.58;15.25;;;153.80;2252.80;;;;;;5067187;28;20536;-72
2022/02/23 08:05:53;;;;;;;26.52;14.43;;;153.90;2252.80;;;;;;5068661;28;20021;-74
2022/02/23 08:08:20;;;;;;;19.60;12.63;;;154.00;2252.80;;;;;;5063776;28;20028;-73
2022/02/23 08:10:46;;;;;;;22.38;12.35;;;154.10;2252.80;;;;;;5062601;28;20434;-72
2022/02/23 08:13:12;;;;;;;25.95;13.30;;;154.10;2252.80;;;;;;5062450;28;20043;-73
2022/02/23 08:21:19;;;;;;;24.20;12.45;;;154.30;2252.80;;;;;;5065166;28;20400;-74
2022/02/23 08:23:46;;;;;;;26.92;13.68;;;154.40;2252.80;;;;;;5069091;28;20025;-73
2022/02/23 08:26:13;;;;;;;37.53;19.83;;;154.40;2252.80;;;;;;5064770;28;20140;-74
2022/02/23 08:28:38;;;;;;;56.83;27.90;;;154.40;2252.80;;;;;;5065492;28;20029;-74
2022/02/23 08:31:05;;;;;;;22.27;12.63;;;154.50;2252.80;;;;;;5060083;28;20028;-73
2022/02/23 08:33:31;;;;;;;26.67;12.50;;;179.20;2252.80;;;;;;5064033;28;20535;-73
2022/02/23 08:35:57;;;;;;;21.05;11.50;;;154.50;2252.80;;;;;;5063097;28;20049;-73
2022/02/23 08:38:23;;;;;;;24.75;13.60;;;154.40;2252.80;;;;;;5062973;28;20083;-73
2022/02/23 08:40:49;;;;;;;29.63;11.50;;;154.30;2252.80;;;;;;5060864;28;20061;-74
2022/02/23 08:43:15;;;;;;;21.42;11.80;;;154.30;2252.80;;;;;;5061644;28;20447;-73
2022/02/23 08:45:41;;;;;;;22.13;10.65;;;154.20;2252.80;;;;;;5063033;28;20056;-74
2022/02/23 08:48:07;;;;;;;29.83;15.55;;;154.30;2252.80;;;;;;5063868;28;20414;-73
2022/02/23 08:50:34;;;;;;;20.02;12.38;;;154.40;2252.80;;;;;;5061205;28;20123;-74
2022/02/23 08:53:00;;;;;;;21.45;12.57;;;154.50;2252.80;;;;;;5064410;28;20013;-73
2022/02/23 08:55:25;;;;;;;19.92;12.00;;;179.30;2252.80;;;;;;5066890;28;20361;-74
2022/02/23 08:57:51;;;;;;;35.60;14.05;;;179.70;2252.80;;;;;;5062216;28;20028;-75
2022/02/23 09:00:17;;;;;;;33.65;15.13;;;180.10;2252.80;;;;;;5079497;28;20028;-74
2022/02/23 09:02:43;;;;;;;35.28;15.27;;;204.80;2252.80;;;;;;5064684;28;20028;-75
2022/02/23 09:05:09;;;;;;;17.38;10.88;;;204.90;2252.80;;;;;;5065217;28;20029;-75
2022/02/23 09:07:34;;;;;;;18.52;10.73;;;205.00;2252.80;;;;;;5060894;28;20037;-75
2022/02/23 09:10:01;;;;;;;18.10;9.15;;;204.90;2252.80;;;;;;5060556;28;20032;-74
2022/02/23 09:12:27;;;;;;;19.52;9.77;;;205.00;2252.80;;;;;;5064416;28;20036;-75
2022/02/23 09:14:53;;;;;;;19.27;8.88;;;205.00;2252.80;;;;;;5062445;28;20035;-75
2022/02/23 09:17:20;;;;;;;17.48;9.02;;;205.00;2252.80;;;;;;5061120;28;20028;-74
2022/02/23 09:19:46;;;;;;;14.75;8.55;;;205.10;2252.80;;;;;;5065544;28;20122;-73
2022/02/23 09:22:12;;;;;;;24.00;11.98;;;205.30;2252.80;;;;;;5063309;28;20167;-73
2022/02/23 09:24:38;;;;;;;23.83;10.65;;;205.30;2252.80;;;;;;5062168;28;20064;-73
2022/02/23 09:27:04;;;;;;;20.00;9.98;;;205.40;2252.80;;;;;;5061794;28;20111;-73
2022/02/23 09:29:35;;;;;;;32.00;12.77;;;205.70;2252.80;;;;;;5063601;28;20036;-74
2022/02/23 09:32:02;;;;;;;25.48;13.43;;;230.40;2252.80;;;;;;5052054;28;20021;-73
2022/02/23 09:34:27;;;;;;;28.23;13.13;;;230.70;2252.80;;;;;;5074683;28;20040;-74
2022/02/23 09:36:53;;;;;;;21.30;9.55;;;231.10;2252.80;;;;;;5062916;28;20035;-74
2022/02/23 09:39:19;;;;;;;20.13;10.82;;;231.20;2252.80;;;;;;5060996;28;20036;-74
2022/02/23 09:41:46;;;;;;;17.48;8.43;;;256.00;2252.80;;;;;;5063747;28;20024;-74
2022/02/23 09:44:17;;;;;;;22.40;9.57;;;256.20;2252.80;;;;;;5066374;28;20028;-74
2022/02/23 09:46:43;;;;;;;24.65;10.23;;;256.30;2252.80;;;;;;5065080;28;20044;-73
2022/02/23 09:49:11;;;;;;;19.30;9.38;;;256.50;2252.80;;;;;;5068012;28;20029;-74
2022/02/23 09:51:38;;;;;;;17.00;8.55;;;256.20;2252.80;;;;;;5064562;28;20024;-73
2022/02/23 09:54:04;;;;;;;15.18;8.38;;;256.10;2252.80;;;;;;5064809;28;20033;-73
2022/02/23 09:56:32;;;;;;;17.67;10.63;;;256.10;2252.80;;;;;;5067571;28;20025;-73
2022/02/23 09:58:58;;;;;;;15.57;8.55;;;256.00;2252.80;;;;;;5067319;28;20021;-74
2022/02/23 10:01:26;;;;;;;20.50;9.07;;;256.20;2252.80;;;;;;5070326;28;20107;-73
2022/02/23 10:03:55;;;;;;;12.75;8.45;;;256.10;2252.80;;;;;;5071029;28;20472;-73
2022/02/23 10:06:27;;;;;;;16.45;8.32;;;256.20;2252.80;;;;;;5068234;28;20174;-74
2022/02/23 10:09:06;;;;;;;21.65;9.85;;;256.10;2252.80;;;;;;5069666;28;20067;-74
2022/02/23 10:11:33;;;;;;;23.50;8.82;;;256.10;2252.80;;;;;;5068044;28;20032;-74
2022/02/23 10:14:02;;;;;;;15.93;6.93;;;256.10;2252.80;;;;;;5063768;28;20021;-73
2022/02/23 10:16:39;;;;;;;15.77;7.60;;;256.30;2252.80;;;;;;5064006;28;20025;-73
2022/02/23 10:19:13;;;;;;;13.70;6.95;;;256.50;2252.80;;;;;;5060428;28;20025;-74
2022/02/23 10:21:48;;;;;;;14.27;6.40;;;256.80;2252.80;;;;;;5067460;28;20017;-74
2022/02/23 10:24:25;;;;;;;14.93;7.07;;;281.80;2278.40;;;;;;5064407;28;20029;-74
2022/02/23 10:27:03;;;;;;;11.52;6.20;;;282.20;2201.60;;;;;;5065769;28;20020;-74
2022/02/23 10:29:30;;;;;;;9.93;4.93;;;282.20;2252.80;;;;;;5062983;28;20028;-73
2022/02/23 10:31:56;;;;;;;13.60;6.75;;;282.30;2201.60;;;;;;5063781;28;20024;-74
2022/02/23 10:34:22;;;;;;;15.77;6.07;;;282.50;2227.20;;;;;;5064622;28;20384;-74
2022/02/23 10:37:24;;;;;;;12.05;5.40;;;307.20;2304.00;;;;;;5077536;28;20047;-73
2022/02/23 10:40:12;;;;;;;17.77;6.70;;;282.50;2176.00;;;;;;5049025;28;20030;-73
2022/02/23 10:42:38;;;;;;;11.23;5.97;;;307.20;2201.60;;;;;;5027007;28;20025;-74
2022/02/23 10:45:06;;;;;;;10.05;6.57;;;282.10;2252.80;;;;;;5045849;28;20032;-74
2022/02/23 10:47:36;;;;;;;22.52;6.68;;;282.10;2278.40;;;;;;5050851;28;20483;-74
2022/02/23 10:53:06;;;;;;;18.73;6.93;;;307.20;2304.00;;;;;;5052143;28;20095;-74
2022/02/23 10:55:32;;;;;;;13.88;6.35;;;282.30;2278.40;;;;;;5031953;28;20033;-73
2022/02/23 10:58:00;;;;;;;17.02;7.72;;;281.90;2278.40;;;;;;5031878;28;20108;-73
2022/02/23 11:00:39;;;;;;;11.15;6.78;;;281.80;2278.40;;;;;;5032246;28;20032;-74
2022/02/23 11:03:05;;;;;;;15.57;7.65;;;256.90;2252.80;;;;;;5031960;28;20084;-74
2022/02/23 11:05:33;;;;;;;17.42;8.70;;;256.80;2252.80;;;;;;5033672;28;20025;-73
2022/02/23 11:08:01;;;;;;;12.85;8.02;;;256.80;2252.80;;;;;;5046885;28;20044;-74
2022/02/23 11:10:28;;;;;;;18.80;6.95;;;256.80;2252.80;;;;;;5040113;28;20033;-74
2022/02/23 11:12:56;;;;;;;11.55;7.05;;;256.80;2252.80;;;;;;5031877;28;20511;-74
2022/02/23 11:15:24;;;;;;;18.25;7.32;;;256.50;2252.80;;;;;;5048683;28;20033;-74
2022/02/23 11:18:45;;;;;;;16.05;8.77;;;256.40;2252.80;;;;;;5053947;28;20149;-73
2022/02/23 11:21:22;;;;;;;19.88;8.88;;;256.40;2252.80;;;;;;5067573;28;20106;-74
2022/02/23 11:24:09;;;;;;;;;;;256.40;2252.80;;;;;;5060111;28;20036;-74
2022/02/23 11:26:36;;;;;;;13.10;9.18;;;256.40;2252.80;;;;;;5069830;28;19908;-74
2022/02/23 11:29:12;;;;;;;14.93;7.93;;;256.40;2252.80;;;;;;5066388;28;20063;-74
2022/02/23 11:31:39;;;;;;;15.98;8.57;;;256.30;2252.80;;;;;;5063371;28;20021;-74
2022/02/23 11:34:09;;;;;;;15.73;8.40;;;256.10;2252.80;;;;;;5060645;28;20059;-75
2022/02/23 11:36:44;;;;;;;14.93;9.77;;;256.10;2252.80;;;;;;5065610;28;20048;-74
2022/02/23 11:39:16;;;;;;;15.73;7.82;;;256.20;2252.80;;;;;;5086097;28;20088;-74
2022/02/23 11:41:53;;;;;;;16.85;8.80;;;256.30;2252.80;;;;;;5066553;28;20075;-74
2022/02/23 11:44:30;;;;;;;13.80;8.45;;;256.50;2252.80;;;;;;5062134;28;20364;-74
2022/02/23 11:47:21;;;;;;;14.60;6.55;;;256.80;2252.80;;;;;;5063712;28;20059;-74
2022/02/23 11:50:13;;;;;;;9.43;4.18;;;281.80;2278.40;;;;;;5063681;28;20058;-74
2022/02/23 11:52:44;;;;;;;8.63;4.70;;;256.90;2252.80;;;;;;5065577;28;20017;-73
2022/02/23 11:55:32;;;;;;;10.32;4.30;;;256.40;2252.80;;;;;;5060745;28;20024;-73
2022/02/23 11:57:59;;;;;;;12.05;3.60;;;256.40;2252.80;;;;;;5065445;28;20063;-74
2022/02/23 12:00:30;;;;;;;9.32;4.65;;;256.20;2252.80;;;;;;5064770;28;20035;-73
2022/02/23 12:03:10;;;;;;;11.73;4.97;;;231.30;2252.80;;;;;;5068807;28;20017;-73
2022/02/23 12:05:46;;;;;;;13.85;4.40;;;231.20;2252.80;;;;;;5061110;28;20033;-73
2022/02/23 12:08:34;;;;;;;10.77;4.80;;;231.10;2252.80;;;;;;5061728;28;20063;-73
2022/02/23 12:11:21;;;;;;;7.38;4.25;;;231.30;2252.80;;;;;;5071192;28;20081;-74
2022/02/23 12:13:55;;;;;;;10.25;4.97;;;256.10;2252.80;;;;;;5068712;28;20033;-74
2022/02/23 12:16:22;;;;;;;14.30;5.20;;;256.30;2252.80;;;;;;5077928;28;20032;-77
2022/02/23 12:18:50;;;;;;;15.25;6.95;;;256.70;2252.80;;;;;;5065142;28;20017;-73
2022/02/23 12:21:16;;;;;;;18.58;7.82;;;256.90;2252.80;;;;;;5060595;28;20453;-74
2022/02/23 12:23:44;;;;;;;13.40;6.50;;;281.70;2278.40;;;;;;5068277;28;20395;-73
2022/02/23 12:26:16;;;;;;;13.88;4.82;;;282.10;2278.40;;;;;;5072482;28;20082;-73